Amarant — CQSF — position and weather

sailwx.info

Track history (hours):
 
Tides and Currents Weather Stations Pressure Air Temp Water Temp Dewpoint Dewpoint Depression Visibility Wind Speed Wind Dir Waves Ship Positions

Amarant

Last reported at 2015-Aug-30 19:32 UTC. Time now 2015-Aug-30 20:04 UTC.
Position N 53°58' E 004°55'.

Length 120 m; draft 7.2 m.

Type: Tanker. MMSI: 255623000.

Date/timePositionNaut miles runAvg speedWind from/ knotsBaromVisibWave heightAir tempDewpointWater temp
2015-Aug-30 19:32N 53°58' E 004°55'1312.9
2015-Aug-30 18:33N 54°09' E 005°03'1312.8
2015-Aug-30 17:33N 54°20' E 005°14'4213.2
2015-Aug-30 14:23N 54°57' E 005°51'1213.0
2015-Aug-30 13:28N 55°07' E 006°01'1212.8
2015-Aug-30 12:33N 55°17' E 006°11'1312.7
2015-Aug-30 11:34N 55°28' E 006°23'1312.6
2015-Aug-30 10:30N 55°39' E 006°35'10912.1
2015-Aug-30 01:30N 57°10' E 008°23'1112.0
2015-Aug-30 00:33N 57°16' E 008°41'6111.8
2015-Aug-29 19:21N 57°46' E 010°20'1011.3
2015-Aug-29 18:30N 57°48' E 010°38'1010.4
2015-Aug-29 17:34N 57°45' E 010°56'1312.8
2015-Aug-29 16:34N 57°36' E 011°12'1312.7
2015-Aug-29 15:33N 57°26' E 011°27'1312.8
2015-Aug-29 14:33N 57°14' E 011°35'1312.7
2015-Aug-29 13:33N 57°02' E 011°43'1312.7
2015-Aug-29 12:33N 56°50' E 011°51'1312.8
2015-Aug-29 11:33N 56°38' E 011°57'1212.3
2015-Aug-29 10:32N 56°26' E 012°05'1212.2
2015-Aug-29 09:33N 56°17' E 012°18'1212.0
2015-Aug-29 08:33N 56°08' E 012°32'1110.7
2015-Aug-29 07:34N 55°59' E 012°42'1111.0
2015-Aug-29 06:34N 55°48' E 012°43'1110.8
2015-Aug-29 05:34N 55°37' E 012°42'10 9.8
2015-Aug-29 04:34N 55°27' E 012°42'1010.1
2015-Aug-29 03:34N 55°17' E 012°47'1211.6
2015-Aug-29 02:33N 55°16' E 013°07'1312.3
2015-Aug-29 01:32N 55°15' E 013°29'1212.4
2015-Aug-29 00:33N 55°14' E 013°50'1312.6
2015-Aug-28 23:33N 55°14' E 014°12'1212.1
2015-Aug-28 22:33N 55°22' E 014°28'1312.8
2015-Aug-28 21:34N 55°30' E 014°45'1312.6
2015-Aug-28 20:33N 55°37' E 015°04'87 4.5
2015-Aug-28 01:26N 56°49' E 016°32'0 0.0
2015-Aug-27 20:23N 56°49' E 016°32'7 8.4
2015-Aug-27 19:33N 56°55' E 016°35'1212.4
2015-Aug-27 18:34N 57°06' E 016°45'1312.5
2015-Aug-27 17:33N 57°19' E 016°51'1312.7
2015-Aug-27 16:33N 57°30' E 017°00'1312.5
2015-Aug-27 15:29N 57°42' E 017°11'2511.9
2015-Aug-27 13:24N 58°05' E 017°29'1512.4
2015-Aug-27 12:12N 58°19' E 017°39'812.7
2015-Aug-27 11:33N 58°27' E 017°44'1312.7
2015-Aug-27 10:32N 58°39' E 017°52'66 2.2
2015-Aug-26 04:26N 57°35' E 017°26'1214.0
2015-Aug-26 03:33N 57°23' E 017°21'1414.1
2015-Aug-26 02:33N 57°09' E 017°15'1414.0
2015-Aug-26 01:33N 56°55' E 017°10'1513.9
2015-Aug-26 00:27N 56°40' E 017°04'7813.1
2015-Aug-25 18:29N 55°41' E 015°34'1314.5
2015-Aug-25 17:34N 55°35' E 015°13'1414.3
2015-Aug-25 16:33N 55°27' E 014°51'1414.0
2015-Aug-25 15:33N 55°19' E 014°32'1413.5
2015-Aug-25 14:33N 55°10' E 014°13'1414.2
2015-Aug-25 13:33N 55°10' E 013°48'2813.6
2015-Aug-25 11:28N 55°13' E 012°59'1213.3
2015-Aug-25 10:33N 55°18' E 012°39'1212.4
2015-Aug-25 09:34N 55°30' E 012°42'1312.8
2015-Aug-25 08:33N 55°43' E 012°41'1312.6
2015-Aug-25 07:34N 55°56' E 012°38'1111.5
2015-Aug-25 06:33N 56°07' E 012°32'1313.0
2015-Aug-25 05:34N 56°14' E 012°13'1712.6
2015-Aug-25 04:13N 56°29' E 011°59'913.5
2015-Aug-25 03:34N 56°38' E 011°55'1313.4
2015-Aug-25 02:33N 56°51' E 011°49'1313.1
2015-Aug-25 01:33N 57°03' E 011°40'1313.0
2015-Aug-25 00:33N 57°15' E 011°32'1212.5
2015-Aug-24 23:34N 57°27' E 011°24'1212.3
2015-Aug-24 22:33N 57°36' E 011°08'1212.3
2015-Aug-24 21:33N 57°44' E 010°51'18211.8
2015-Aug-24 06:08N 55°42' E 006°46'712.5
2015-Aug-24 05:33N 55°36' E 006°40'1612.3
2015-Aug-24 04:17N 55°22' E 006°25'912.4
2015-Aug-24 03:33N 55°14' E 006°17'1312.5
2015-Aug-24 02:33N 55°04' E 006°06'5312.7
2015-Aug-23 22:25N 54°18' E 005°20'1113.0
2015-Aug-23 21:34N 54°09' E 005°10'1313.0
2015-Aug-23 20:33N 53°57' E 005°02'1312.8
2015-Aug-23 19:34N 53°45' E 004°55'1212.4
2015-Aug-23 18:33N 53°33' E 004°47'1312.5
2015-Aug-23 17:34N 53°22' E 004°38'1412.7
2015-Aug-23 16:27N 53°09' E 004°28'3712.2
2015-Aug-23 13:27N 52°38' E 003°55'1112.3
2015-Aug-23 12:31N 52°30' E 003°42'1212.7
2015-Aug-23 11:33N 52°19' E 003°34'1313.0
2015-Aug-23 10:32N 52°07' E 003°25'1413.8
2015-Aug-23 09:29N 51°53' E 003°20'1312.8
2015-Aug-23 08:27N 51°39' E 003°20'1314.8
2015-Aug-23 07:33N 51°28' E 003°31'1211.5
2015-Aug-23 06:33N 51°22' E 003°46'1010.2
2015-Aug-23 05:33N 51°26' E 004°01'9 9.0
2015-Aug-23 04:34N 51°21' E 004°14'6 6.0
2015-Aug-23 03:33N 51°17' E 004°20'2 2.0
2015-Aug-23 02:33N 51°15' E 004°22'0 0.2
2015-Aug-23 01:33N 51°15' E 004°22'0 0.0
2015-Aug-23 00:33N 51°15' E 004°22'0 0.0
2015-Aug-22 23:33N 51°15' E 004°22'0 0.0
2015-Aug-22 22:33N 51°15' E 004°22'0 0.0
2015-Aug-22 21:33N 51°15' E 004°22'0 0.0
2015-Aug-22 20:33N 51°15' E 004°22'0 0.0
2015-Aug-22 19:33N 51°15' E 004°22'0 0.0
2015-Aug-22 18:33N 51°15' E 004°22'0 0.0
2015-Aug-22 17:33N 51°15' E 004°22'0 0.0
2015-Aug-22 16:33N 51°15' E 004°22'0 0.0
2015-Aug-22 15:33N 51°15' E 004°22'0 0.0
2015-Aug-22 14:33N 51°15' E 004°22'0 0.0
2015-Aug-22 13:33N 51°15' E 004°22'0 0.0
2015-Aug-22 12:33N 51°15' E 004°22'0 0.0
2015-Aug-22 11:33N 51°15' E 004°22'0 0.0
2015-Aug-22 10:33N 51°15' E 004°22'0 0.0
2015-Aug-22 09:33N 51°15' E 004°22'0 0.0
2015-Aug-22 08:33N 51°15' E 004°22'0 0.0
2015-Aug-22 07:33N 51°15' E 004°22'0 0.0
2015-Aug-22 06:33N 51°15' E 004°22'0 0.0
2015-Aug-22 05:32N 51°15' E 004°22'0 0.0
2015-Aug-22 04:32N 51°15' E 004°22'0 0.0
2015-Aug-22 03:32N 51°15' E 004°22'0 0.0
2015-Aug-22 02:32N 51°15' E 004°22'0 0.0
2015-Aug-22 01:32N 51°15' E 004°22'0 0.0
2015-Aug-22 00:32N 51°15' E 004°22'0 0.0
2015-Aug-21 23:32N 51°15' E 004°22'0 0.0
2015-Aug-21 22:32N 51°15' E 004°22'0 0.0
2015-Aug-21 21:32N 51°15' E 004°22'0 0.0
2015-Aug-21 20:32N 51°15' E 004°22'0 0.0
2015-Aug-21 19:33N 51°15' E 004°22'0 0.0
2015-Aug-21 18:33N 51°15' E 004°22'4 4.2
2015-Aug-21 17:33N 51°19' E 004°19'2 2.1
2015-Aug-21 16:33N 51°21' E 004°17'0 0.0
2015-Aug-21 15:33N 51°21' E 004°17'7 6.7
2015-Aug-21 14:33N 51°22' E 004°07'8 8.2
2015-Aug-21 13:33N 51°21' E 003°54'9 8.9
2015-Aug-21 12:33N 51°26' E 003°41'1110.5
2015-Aug-21 11:33N 51°31' E 003°27'2511.7
2015-Aug-21 09:25N 51°55' E 003°18'11312.1
2015-Aug-21 00:04N 53°37' E 004°40'612.4
2015-Aug-20 23:33N 53°43' E 004°44'1612.2
2015-Aug-20 22:16N 53°57' E 004°54'1012.0
2015-Aug-20 21:28N 54°06' E 005°00'1112.1
2015-Aug-20 20:33N 54°16' E 005°08'  
Track history (hours):
 
Tides and Currents Weather Stations Pressure Air Temp Water Temp Dewpoint Dewpoint Depression Visibility Wind Speed Wind Dir Waves Ship Positions

Amarant

Last reported at 2015-Aug-30 19:32 UTC. Time now 2015-Aug-30 20:04 UTC.
Position N 53°58' E 004°55'.

Length 120 m; draft 7.2 m.

Type: Tanker. MMSI: 255623000.

Date/timePositionNaut miles runAvg speedWind from/ knotsBaromVisibWave heightAir tempDewpointWater temp
2015-Aug-30 19:32N 53°58' E 004°55'1312.9
2015-Aug-30 18:33N 54°09' E 005°03'1312.8
2015-Aug-30 17:33N 54°20' E 005°14'4213.2
2015-Aug-30 14:23N 54°57' E 005°51'1213.0
2015-Aug-30 13:28N 55°07' E 006°01'1212.8
2015-Aug-30 12:33N 55°17' E 006°11'1312.7
2015-Aug-30 11:34N 55°28' E 006°23'1312.6
2015-Aug-30 10:30N 55°39' E 006°35'10912.1
2015-Aug-30 01:30N 57°10' E 008°23'1112.0
2015-Aug-30 00:33N 57°16' E 008°41'6111.8
2015-Aug-29 19:21N 57°46' E 010°20'1011.3
2015-Aug-29 18:30N 57°48' E 010°38'1010.4
2015-Aug-29 17:34N 57°45' E 010°56'1312.8
2015-Aug-29 16:34N 57°36' E 011°12'1312.7
2015-Aug-29 15:33N 57°26' E 011°27'1312.8
2015-Aug-29 14:33N 57°14' E 011°35'1312.7
2015-Aug-29 13:33N 57°02' E 011°43'1312.7
2015-Aug-29 12:33N 56°50' E 011°51'1312.8
2015-Aug-29 11:33N 56°38' E 011°57'1212.3
2015-Aug-29 10:32N 56°26' E 012°05'1212.2
2015-Aug-29 09:33N 56°17' E 012°18'1212.0
2015-Aug-29 08:33N 56°08' E 012°32'1110.7
2015-Aug-29 07:34N 55°59' E 012°42'1111.0
2015-Aug-29 06:34N 55°48' E 012°43'1110.8
2015-Aug-29 05:34N 55°37' E 012°42'10 9.8
2015-Aug-29 04:34N 55°27' E 012°42'1010.1
2015-Aug-29 03:34N 55°17' E 012°47'1211.6
2015-Aug-29 02:33N 55°16' E 013°07'1312.3
2015-Aug-29 01:32N 55°15' E 013°29'1212.4
2015-Aug-29 00:33N 55°14' E 013°50'1312.6
2015-Aug-28 23:33N 55°14' E 014°12'1212.1
2015-Aug-28 22:33N 55°22' E 014°28'1312.8
2015-Aug-28 21:34N 55°30' E 014°45'1312.6
2015-Aug-28 20:33N 55°37' E 015°04'87 4.5
2015-Aug-28 01:26N 56°49' E 016°32'0 0.0
2015-Aug-27 20:23N 56°49' E 016°32'7 8.4
2015-Aug-27 19:33N 56°55' E 016°35'1212.4
2015-Aug-27 18:34N 57°06' E 016°45'1312.5
2015-Aug-27 17:33N 57°19' E 016°51'1312.7
2015-Aug-27 16:33N 57°30' E 017°00'1312.5
2015-Aug-27 15:29N 57°42' E 017°11'2511.9
2015-Aug-27 13:24N 58°05' E 017°29'1512.4
2015-Aug-27 12:12N 58°19' E 017°39'812.7
2015-Aug-27 11:33N 58°27' E 017°44'1312.7
2015-Aug-27 10:32N 58°39' E 017°52'66 2.2
2015-Aug-26 04:26N 57°35' E 017°26'1214.0
2015-Aug-26 03:33N 57°23' E 017°21'1414.1
2015-Aug-26 02:33N 57°09' E 017°15'1414.0
2015-Aug-26 01:33N 56°55' E 017°10'1513.9
2015-Aug-26 00:27N 56°40' E 017°04'7813.1
2015-Aug-25 18:29N 55°41' E 015°34'1314.5
2015-Aug-25 17:34N 55°35' E 015°13'1414.3
2015-Aug-25 16:33N 55°27' E 014°51'1414.0
2015-Aug-25 15:33N 55°19' E 014°32'1413.5
2015-Aug-25 14:33N 55°10' E 014°13'1414.2
2015-Aug-25 13:33N 55°10' E 013°48'2813.6
2015-Aug-25 11:28N 55°13' E 012°59'1213.3
2015-Aug-25 10:33N 55°18' E 012°39'1212.4
2015-Aug-25 09:34N 55°30' E 012°42'1312.8
2015-Aug-25 08:33N 55°43' E 012°41'1312.6
2015-Aug-25 07:34N 55°56' E 012°38'1111.5
2015-Aug-25 06:33N 56°07' E 012°32'1313.0
2015-Aug-25 05:34N 56°14' E 012°13'1712.6
2015-Aug-25 04:13N 56°29' E 011°59'913.5
2015-Aug-25 03:34N 56°38' E 011°55'1313.4
2015-Aug-25 02:33N 56°51' E 011°49'1313.1
2015-Aug-25 01:33N 57°03' E 011°40'1313.0
2015-Aug-25 00:33N 57°15' E 011°32'1212.5
2015-Aug-24 23:34N 57°27' E 011°24'1212.3
2015-Aug-24 22:33N 57°36' E 011°08'1212.3
2015-Aug-24 21:33N 57°44' E 010°51'18211.8
2015-Aug-24 06:08N 55°42' E 006°46'712.5
2015-Aug-24 05:33N 55°36' E 006°40'1612.3
2015-Aug-24 04:17N 55°22' E 006°25'912.4
2015-Aug-24 03:33N 55°14' E 006°17'1312.5
2015-Aug-24 02:33N 55°04' E 006°06'5312.7
2015-Aug-23 22:25N 54°18' E 005°20'1113.0
2015-Aug-23 21:34N 54°09' E 005°10'1313.0
2015-Aug-23 20:33N 53°57' E 005°02'1312.8
2015-Aug-23 19:34N 53°45' E 004°55'1212.4
2015-Aug-23 18:33N 53°33' E 004°47'1312.5
2015-Aug-23 17:34N 53°22' E 004°38'1412.7
2015-Aug-23 16:27N 53°09' E 004°28'3712.2
2015-Aug-23 13:27N 52°38' E 003°55'1112.3
2015-Aug-23 12:31N 52°30' E 003°42'1212.7
2015-Aug-23 11:33N 52°19' E 003°34'1313.0
2015-Aug-23 10:32N 52°07' E 003°25'1413.8
2015-Aug-23 09:29N 51°53' E 003°20'1312.8
2015-Aug-23 08:27N 51°39' E 003°20'1314.8
2015-Aug-23 07:33N 51°28' E 003°31'1211.5
2015-Aug-23 06:33N 51°22' E 003°46'1010.2
2015-Aug-23 05:33N 51°26' E 004°01'9 9.0
2015-Aug-23 04:34N 51°21' E 004°14'6 6.0
2015-Aug-23 03:33N 51°17' E 004°20'2 2.0
2015-Aug-23 02:33N 51°15' E 004°22'0 0.2
2015-Aug-23 01:33N 51°15' E 004°22'0 0.0
2015-Aug-23 00:33N 51°15' E 004°22'0 0.0
2015-Aug-22 23:33N 51°15' E 004°22'0 0.0
2015-Aug-22 22:33N 51°15' E 004°22'0 0.0
2015-Aug-22 21:33N 51°15' E 004°22'0 0.0
2015-Aug-22 20:33N 51°15' E 004°22'0 0.0
2015-Aug-22 19:33N 51°15' E 004°22'0 0.0
2015-Aug-22 18:33N 51°15' E 004°22'0 0.0
2015-Aug-22 17:33N 51°15' E 004°22'0 0.0
2015-Aug-22 16:33N 51°15' E 004°22'0 0.0
2015-Aug-22 15:33N 51°15' E 004°22'0 0.0
2015-Aug-22 14:33N 51°15' E 004°22'0 0.0
2015-Aug-22 13:33N 51°15' E 004°22'0 0.0
2015-Aug-22 12:33N 51°15' E 004°22'0 0.0
2015-Aug-22 11:33N 51°15' E 004°22'0 0.0
2015-Aug-22 10:33N 51°15' E 004°22'0 0.0
2015-Aug-22 09:33N 51°15' E 004°22'0 0.0
2015-Aug-22 08:33N 51°15' E 004°22'0 0.0
2015-Aug-22 07:33N 51°15' E 004°22'0 0.0
2015-Aug-22 06:33N 51°15' E 004°22'0 0.0
2015-Aug-22 05:32N 51°15' E 004°22'0 0.0
2015-Aug-22 04:32N 51°15' E 004°22'0 0.0
2015-Aug-22 03:32N 51°15' E 004°22'0 0.0
2015-Aug-22 02:32N 51°15' E 004°22'0 0.0
2015-Aug-22 01:32N 51°15' E 004°22'0 0.0
2015-Aug-22 00:32N 51°15' E 004°22'0 0.0
2015-Aug-21 23:32N 51°15' E 004°22'0 0.0
2015-Aug-21 22:32N 51°15' E 004°22'0 0.0
2015-Aug-21 21:32N 51°15' E 004°22'0 0.0
2015-Aug-21 20:32N 51°15' E 004°22'0 0.0
2015-Aug-21 19:33N 51°15' E 004°22'0 0.0
2015-Aug-21 18:33N 51°15' E 004°22'4 4.2
2015-Aug-21 17:33N 51°19' E 004°19'2 2.1
2015-Aug-21 16:33N 51°21' E 004°17'0 0.0
2015-Aug-21 15:33N 51°21' E 004°17'7 6.7
2015-Aug-21 14:33N 51°22' E 004°07'8 8.2
2015-Aug-21 13:33N 51°21' E 003°54'9 8.9
2015-Aug-21 12:33N 51°26' E 003°41'1110.5
2015-Aug-21 11:33N 51°31' E 003°27'2511.7
2015-Aug-21 09:25N 51°55' E 003°18'11312.1
2015-Aug-21 00:04N 53°37' E 004°40'612.4
2015-Aug-20 23:33N 53°43' E 004°44'1612.2
2015-Aug-20 22:16N 53°57' E 004°54'1012.0
2015-Aug-20 21:28N 54°06' E 005°00'1112.1
2015-Aug-20 20:33N 54°16' E 005°08'  

Dump ship's entire track history